x

West Superior - 30nm Ne Of Outer Island, Wi (45006) Wave Buoy

8:50am - Mon 24th Jul 2017 All times are CDT. -5 hours from GMT.

  • Sig Wave height 0.3ft
  • Average Period 4s
  • Wind
    7mph, 9mph gusts
  • Sea Temp 48°f
  • Air Temp 49°f
  • Sea Pressure 1020.1mb
  • West Superior - 30nm Ne Of Outer Island, Wi
  • West Superior - 30nm Ne Of Outer Island, Wi

More Historic Weather Station data

Upgrade to MSW Pro to gain access to the past 30 days of data for over 8000 Wavebouys and Weather Stations around the globe.

Join Pro

Comparision Forecast

View Surf forecast
   
Mon 07/24 8:50am 0.3ft  -  4s 7 9 mph 1020.1mb 48f 49f
7:50am 0.7ft  -  4s 4 7 mph 1019.6mb 48f 48f
6:50am 0.7ft  -  4s 4 7 mph 1019.4mb 48f 48f
5:50am 0.7ft  -  4s 9 9 mph 1018.9mb 48f 48f
4:50am 0.7ft  -  4s 4 7 mph 1018.3mb 48f 49f
3:50am 0.7ft  -  4s 7 7 mph 1018.2mb 48f 49f
2:50am 0.7ft  -  4s 4 4 mph 1018.1mb 48f 51f
1:50am 0.7ft  -  4s 2 2 mph 1017.7mb 48f 51f
12:50am 1ft 5s 4s  -  0 mph 1017.7mb 48f 50f
Sun 07/23 11:50pm 1ft 4s 4s 2 2 mph 1017.4mb 48f 49f
10:50pm 1ft 4s 4s 7 7 mph 1017.1mb 48f 50f
9:50pm 1.3ft 4s 4s 7 7 mph 1016.9mb 48f 50f
8:50pm 1.3ft 4s 4s 4 4 mph 1016.6mb 48f 50f
7:50pm 1.6ft 4s 4s 7 9 mph 1016.6mb 48f 50f
6:50pm 1.3ft 4s 4s 2 4 mph 1016mb 48f 51f
5:50pm 1.6ft 4s 4s 4 4 mph 1016.1mb 48f 51f
4:50pm 1.6ft 5s 4s 7 7 mph 1016.1mb 48f 51f
3:50pm 2ft 4s 4s 9 9 mph 1015.9mb 48f 50f
2:50pm 2ft 4s 4s 9 11 mph 1015.3mb 48f 51f
1:50pm 2ft 4s 4s 13 16 mph 1014.7mb 47f 51f
12:50pm 2ft 4s 4s 13 18 mph 1014.5mb 48f 51f
11:50am 1.6ft 4s 4s 11 13 mph 1013.9mb 48f 51f
10:50am 2ft 5s 4s 11 16 mph 1013.2mb 47f 51f
9:50am 1.6ft 4s 4s 11 13 mph 1012.4mb 47f 51f
8:50am 1.6ft 4s 3s 11 13 mph 1011.8mb 47f 51f
7:50am 1.6ft 5s 4s 13 16 mph 1011mb 47f 50f
6:50am 1.6ft 5s 4s 11 13 mph 1010.9mb 47f 50f
5:50am 1.6ft 4s 4s 11 11 mph 1010.5mb 47f 50f
4:50am 2ft 5s 4s 11 13 mph 1010mb 47f 50f
3:50am 2ft 5s 4s 9 11 mph 1009.6mb 47f 50f
2:50am 2ft 4s 4s 7 9 mph 1009.2mb 48f 49f
1:50am 1.6ft 4s 4s 11 13 mph 1009.7mb 48f 49f
12:50am 2ft 4s 4s 4 7 mph 1009.8mb 48f 49f
Sat 07/22 11:50pm 1.6ft 5s 4s 4 7 mph 1010.1mb 48f 50f
10:50pm 1.6ft 5s 4s 13 16 mph 1009.3mb 48f 50f
9:50pm 1.6ft 5s 4s 11 13 mph 1009.7mb 48f 50f
8:50pm 1.6ft 5s 4s 13 16 mph 1010.2mb 48f 49f
7:50pm 1.6ft 4s 4s 9 9 mph 1009.6mb 48f 48f
6:50pm 2ft 4s 4s 9 11 mph 1009.3mb 48f 49f
5:50pm 2ft 5s 4s 4 7 mph 1010mb 47f 49f
4:50pm 2ft 4s 4s 7 9 mph 1010.4mb 48f 49f
3:50pm 2ft 4s 4s 7 9 mph 1010.4mb 47f 49f
2:50pm 2ft 4s 4s 11 13 mph 1010.2mb 47f 48f
1:50pm 2ft 4s 4s 13 16 mph 1010.2mb 47f 49f
12:50pm 2ft 5s 4s 13 18 mph 1010.1mb 47f 49f
11:50am 2ft 5s 4s 9 11 mph 1010.5mb 47f 49f
10:50am 2ft 4s 4s 7 7 mph 1010.1mb 47f 49f
9:50am 2ft 4s 4s 9 11 mph 1010.2mb 47f 49f
8:50am 1.6ft 4s 3s 9 11 mph 1010.5mb 47f 49f
7:50am 1.3ft 4s 3s 11 13 mph 1009.5mb 47f 50f
6:50am 1.3ft 3s 3s 13 13 mph 1009.4mb 47f 50f
5:50am 1.3ft 4s 3s 11 13 mph 1008.8mb 47f 50f
4:50am 1.3ft 3s 3s 13 16 mph 1009.1mb 48f 50f
3:50am 1ft 3s 3s 11 13 mph 1009.1mb 48f 51f
2:50am 1ft 3s 3s 9 11 mph 1008.8mb 48f 51f
1:50am 0.7ft  -  3s 13 16 mph 1008.9mb 48f 51f
12:50am 0.7ft  -  3s 13 16 mph 1009.1mb 47f 53f
Fri 07/21 11:50pm 0.7ft  -  3s 9 11 mph 1009.5mb 47f 53f
10:50pm 0.7ft  -  3s 11 13 mph 1009.8mb 47f 53f
9:50pm 0.7ft  -  2s 11 11 mph 1010.3mb 48f 54f
8:50pm 0.3ft  -  3s 11 13 mph 1011.3mb 48f 53f
7:50pm  -   -  3s 11 11 mph 1011.7mb 48f 54f
6:50pm  -   -  3s 11 11 mph 1011mb 49f 56f
5:50pm 0.3ft  -  4s 11 11 mph 1011.3mb 49f 54f
4:50pm  -   -  3s 9 11 mph 1012.4mb 49f 54f
3:50pm  -   -  3s 9 11 mph 1013.1mb 49f 53f
2:50pm  -   -  3s 4 7 mph 1013.9mb 49f 52f
1:50pm  -   -  3s 9 9 mph 1013.5mb 49f 55f
12:50pm  -   -  3s 9 9 mph 1014.7mb 49f 54f
11:50am 0.3ft  -  3s 4 4 mph 1015.3mb 48f 57f
10:50am 0.3ft  -  3s 7 7 mph 1014.5mb 47f 58f
9:50am  -   -  3s 9 9 mph 1014.5mb 47f 54f
8:50am 0.3ft  -  3s 4 7 mph 1014.1mb 47f 54f
7:50am 0.3ft  -  3s 7 9 mph 1013.5mb 47f 54f
6:50am 0.3ft  -  3s 4 4 mph 1014mb 47f 55f
5:50am 0.3ft  -  3s  -  2 mph 1013.9mb 47f 56f
4:50am 0.3ft  -  3s 2 2 mph 1014.5mb 47f 53f
3:50am 0.3ft  -  3s 4 9 mph 1014.5mb 47f 54f
2:50am 0.3ft  -  3s 7 9 mph 1014.4mb 47f 54f
1:50am 0.3ft  -  3s 4 7 mph 1013.8mb 47f 57f
12:50am 0.3ft  -  3s 4 4 mph 1014mb 48f 58f
Thu 07/20 11:50pm 0.7ft  -  3s 7 9 mph 1014mb 48f 60f
10:50pm 0.7ft  -  3s 7 9 mph 1014.1mb 48f 56f
9:50pm 0.7ft  -  3s 9 9 mph 1013.7mb 48f 58f
8:50pm 0.7ft  -  3s 9 9 mph 1013.1mb 48f 56f
7:50pm 0.7ft  -  3s 7 9 mph 1013.1mb 48f 56f
6:50pm 0.7ft  -  3s 4 4 mph 1013.3mb 48f 55f
5:50pm 1ft 3s 3s 11 13 mph 1013.5mb 48f 57f
4:50pm 1ft 3s 3s 9 9 mph 1013.8mb 48f 55f
3:50pm 1ft 3s 3s 9 11 mph 1013.9mb 48f 54f